Terminal Aerodrome Forecast
Issued by NWS New Orleans/Baton Rouge, LA

Home | Current Version | Previous Version | Text Only | Print | Product List | Glossary On
Versions: 1 2 3 4 5 6 7 8 9 10 11 12 13 14 15 16 17 18 19 20 21 22 23 24 25
000
FTUS44 KLIX 201607 AAC
TAFBTR
TAF AMD
KBTR 201607Z 2016/2112 14008KT P6SM BKN015 OVC025
     FM201800 13006KT P6SM SCT025
     FM202300 14005KT 5SM -SHRA SCT005 BKN030
     FM210400 12005KT 3SM TSRA SCT003 OVC030CB
      TEMPO 2106/2110 3/4SM TSRA OVC003CB=

USA.gov is the U.S. government's official web portal to all federal, state and local government web resources and services.